sensor_id;sensor_type;location;lat;lon;timestamp;P1;durP1;ratioP1;P2;durP2;ratioP2
12770;SDS011;6449;47.666;9.160;2022-11-15T00:01:23;121.50;;;16.50;;
12770;SDS011;6449;47.666;9.160;2022-11-15T00:06:20;263.03;;;19.00;;
12770;SDS011;6449;47.666;9.160;2022-11-15T00:11:17;67.77;;;15.67;;
12770;SDS011;6449;47.666;9.160;2022-11-15T00:16:11;26.27;;;12.07;;
12770;SDS011;6449;47.666;9.160;2022-11-15T00:21:06;139.93;;;15.80;;
12770;SDS011;6449;47.666;9.160;2022-11-15T00:26:03;206.00;;;18.40;;
12770;SDS011;6449;47.666;9.160;2022-11-15T00:30:59;72.03;;;12.87;;
12770;SDS011;6449;47.666;9.160;2022-11-15T00:35:59;116.90;;;17.30;;
12770;SDS011;6449;47.666;9.160;2022-11-15T00:41:00;52.20;;;13.30;;
12770;SDS011;6449;47.666;9.160;2022-11-15T00:46:03;24.53;;;11.90;;
12770;SDS011;6449;47.666;9.160;2022-11-15T00:50:57;72.77;;;14.27;;
12770;SDS011;6449;47.666;9.160;2022-11-15T00:55:54;14.80;;;10.77;;
12770;SDS011;6449;47.666;9.160;2022-11-15T01:00:50;19.83;;;10.33;;
12770;SDS011;6449;47.666;9.160;2022-11-15T01:05:47;136.53;;;15.50;;
12770;SDS011;6449;47.666;9.160;2022-11-15T01:10:42;113.23;;;14.20;;
12770;SDS011;6449;47.666;9.160;2022-11-15T01:15:38;90.20;;;14.40;;
12770;SDS011;6449;47.666;9.160;2022-11-15T01:20:34;90.60;;;14.23;;
12770;SDS011;6449;47.666;9.160;2022-11-15T01:25:37;158.87;;;16.63;;
12770;SDS011;6449;47.666;9.160;2022-11-15T01:30:38;99.93;;;14.20;;
12770;SDS011;6449;47.666;9.160;2022-11-15T01:40:45;157.87;;;16.00;;
12770;SDS011;6449;47.666;9.160;2022-11-15T01:45:48;48.43;;;12.87;;
12770;SDS011;6449;47.666;9.160;2022-11-15T01:50:52;193.07;;;18.87;;
12770;SDS011;6449;47.666;9.160;2022-11-15T01:55:48;63.60;;;14.07;;
12770;SDS011;6449;47.666;9.160;2022-11-15T02:00:42;157.57;;;17.37;;
12770;SDS011;6449;47.666;9.160;2022-11-15T02:05:41;13.80;;;11.20;;
12770;SDS011;6449;47.666;9.160;2022-11-15T02:10:46;35.03;;;12.77;;
12770;SDS011;6449;47.666;9.160;2022-11-15T02:15:44;143.50;;;17.17;;
12770;SDS011;6449;47.666;9.160;2022-11-15T02:21:15;170.03;;;17.47;;
12770;SDS011;6449;47.666;9.160;2022-11-15T02:32:29;46.07;;;13.93;;
12770;SDS011;6449;47.666;9.160;2022-11-15T02:37:36;129.27;;;14.50;;
12770;SDS011;6449;47.666;9.160;2022-11-15T02:42:42;19.17;;;10.57;;
12770;SDS011;6449;47.666;9.160;2022-11-15T02:48:12;39.27;;;12.07;;
12770;SDS011;6449;47.666;9.160;2022-11-15T02:53:14;25.83;;;10.57;;
12770;SDS011;6449;47.666;9.160;2022-11-15T02:58:38;49.77;;;12.50;;
12770;SDS011;6449;47.666;9.160;2022-11-15T03:04:08;57.63;;;12.27;;
12770;SDS011;6449;47.666;9.160;2022-11-15T03:09:19;52.47;;;13.10;;
12770;SDS011;6449;47.666;9.160;2022-11-15T03:14:28;40.40;;;12.10;;
12770;SDS011;6449;47.666;9.160;2022-11-15T03:19:35;30.97;;;11.67;;
12770;SDS011;6449;47.666;9.160;2022-11-15T03:24:42;48.50;;;11.80;;
12770;SDS011;6449;47.666;9.160;2022-11-15T03:29:39;30.87;;;12.17;;
12770;SDS011;6449;47.666;9.160;2022-11-15T03:34:50;25.40;;;11.00;;
12770;SDS011;6449;47.666;9.160;2022-11-15T03:39:54;10.17;;;9.13;;
12770;SDS011;6449;47.666;9.160;2022-11-15T03:44:51;31.83;;;11.30;;
12770;SDS011;6449;47.666;9.160;2022-11-15T03:49:59;34.93;;;10.40;;
12770;SDS011;6449;47.666;9.160;2022-11-15T03:55:03;21.40;;;10.17;;
12770;SDS011;6449;47.666;9.160;2022-11-15T04:00:03;24.03;;;10.10;;
12770;SDS011;6449;47.666;9.160;2022-11-15T04:04:59;29.40;;;10.80;;
12770;SDS011;6449;47.666;9.160;2022-11-15T04:09:55;59.70;;;11.33;;
12770;SDS011;6449;47.666;9.160;2022-11-15T04:14:57;61.93;;;11.37;;
12770;SDS011;6449;47.666;9.160;2022-11-15T04:20:05;65.73;;;11.43;;
12770;SDS011;6449;47.666;9.160;2022-11-15T04:25:22;34.67;;;11.27;;
12770;SDS011;6449;47.666;9.160;2022-11-15T04:30:22;21.83;;;10.73;;
12770;SDS011;6449;47.666;9.160;2022-11-15T04:35:17;84.77;;;12.37;;
12770;SDS011;6449;47.666;9.160;2022-11-15T04:40:10;16.53;;;9.67;;
12770;SDS011;6449;47.666;9.160;2022-11-15T04:45:06;19.70;;;9.83;;
12770;SDS011;6449;47.666;9.160;2022-11-15T04:50:02;18.90;;;9.40;;
12770;SDS011;6449;47.666;9.160;2022-11-15T04:55:01;25.60;;;10.57;;
12770;SDS011;6449;47.666;9.160;2022-11-15T04:59:58;49.87;;;11.43;;
12770;SDS011;6449;47.666;9.160;2022-11-15T05:05:04;19.80;;;10.13;;
12770;SDS011;6449;47.666;9.160;2022-11-15T05:09:58;100.40;;;13.20;;
12770;SDS011;6449;47.666;9.160;2022-11-15T05:14:53;12.73;;;9.60;;
12770;SDS011;6449;47.666;9.160;2022-11-15T05:19:46;79.80;;;11.77;;
12770;SDS011;6449;47.666;9.160;2022-11-15T05:24:40;111.23;;;12.97;;
12770;SDS011;6449;47.666;9.160;2022-11-15T05:29:35;80.97;;;12.47;;
12770;SDS011;6449;47.666;9.160;2022-11-15T05:34:30;55.87;;;10.40;;
12770;SDS011;6449;47.666;9.160;2022-11-15T05:39:24;37.77;;;9.97;;
12770;SDS011;6449;47.666;9.160;2022-11-15T05:44:22;72.30;;;10.83;;
12770;SDS011;6449;47.666;9.160;2022-11-15T05:49:18;71.77;;;10.07;;
12770;SDS011;6449;47.666;9.160;2022-11-15T05:54:18;165.80;;;13.87;;
12770;SDS011;6449;47.666;9.160;2022-11-15T05:59:18;58.77;;;10.40;;
12770;SDS011;6449;47.666;9.160;2022-11-15T06:04:12;346.47;;;18.30;;
12770;SDS011;6449;47.666;9.160;2022-11-15T06:09:09;68.03;;;10.33;;
12770;SDS011;6449;47.666;9.160;2022-11-15T06:14:04;146.67;;;41.80;;
12770;SDS011;6449;47.666;9.160;2022-11-15T06:18:58;77.93;;;13.47;;
12770;SDS011;6449;47.666;9.160;2022-11-15T06:23:55;48.23;;;13.37;;
12770;SDS011;6449;47.666;9.160;2022-11-15T06:28:49;84.63;;;12.27;;
12770;SDS011;6449;47.666;9.160;2022-11-15T06:33:44;64.43;;;10.37;;
12770;SDS011;6449;47.666;9.160;2022-11-15T06:38:37;140.67;;;15.30;;
12770;SDS011;6449;47.666;9.160;2022-11-15T06:43:34;48.00;;;11.63;;
12770;SDS011;6449;47.666;9.160;2022-11-15T06:48:29;10.50;;;9.13;;
12770;SDS011;6449;47.666;9.160;2022-11-15T06:53:29;59.73;;;11.33;;
12770;SDS011;6449;47.666;9.160;2022-11-15T06:58:24;28.97;;;10.03;;
12770;SDS011;6449;47.666;9.160;2022-11-15T07:03:17;92.80;;;13.23;;
12770;SDS011;6449;47.666;9.160;2022-11-15T07:08:11;57.57;;;12.77;;
12770;SDS011;6449;47.666;9.160;2022-11-15T07:13:05;12.77;;;9.10;;
12770;SDS011;6449;47.666;9.160;2022-11-15T07:18:00;82.47;;;15.73;;
12770;SDS011;6449;47.666;9.160;2022-11-15T07:22:59;68.83;;;11.80;;
12770;SDS011;6449;47.666;9.160;2022-11-15T07:27:56;96.83;;;12.60;;
12770;SDS011;6449;47.666;9.160;2022-11-15T07:32:55;70.43;;;12.97;;
12770;SDS011;6449;47.666;9.160;2022-11-15T07:37:53;64.30;;;11.73;;
12770;SDS011;6449;47.666;9.160;2022-11-15T07:42:48;35.80;;;10.73;;
12770;SDS011;6449;47.666;9.160;2022-11-15T07:47:48;28.47;;;10.50;;
12770;SDS011;6449;47.666;9.160;2022-11-15T07:52:44;55.50;;;11.93;;
12770;SDS011;6449;47.666;9.160;2022-11-15T07:57:37;62.03;;;11.07;;
12770;SDS011;6449;47.666;9.160;2022-11-15T08:02:31;24.93;;;10.97;;
12770;SDS011;6449;47.666;9.160;2022-11-15T08:07:24;13.53;;;11.37;;
12770;SDS011;6449;47.666;9.160;2022-11-15T08:12:24;18.73;;;12.17;;
12770;SDS011;6449;47.666;9.160;2022-11-15T08:17:17;24.00;;;12.37;;
12770;SDS011;6449;47.666;9.160;2022-11-15T08:22:10;12.60;;;11.03;;
12770;SDS011;6449;47.666;9.160;2022-11-15T08:27:04;15.90;;;12.90;;
12770;SDS011;6449;47.666;9.160;2022-11-15T08:32:07;17.77;;;14.67;;
12770;SDS011;6449;47.666;9.160;2022-11-15T08:37:01;17.57;;;13.47;;
12770;SDS011;6449;47.666;9.160;2022-11-15T08:41:54;16.53;;;13.33;;
12770;SDS011;6449;47.666;9.160;2022-11-15T08:46:48;26.60;;;14.20;;
12770;SDS011;6449;47.666;9.160;2022-11-15T08:51:42;16.67;;;13.37;;
12770;SDS011;6449;47.666;9.160;2022-11-15T08:56:36;25.80;;;18.33;;
12770;SDS011;6449;47.666;9.160;2022-11-15T09:01:29;28.23;;;21.40;;
12770;SDS011;6449;47.666;9.160;2022-11-15T09:06:24;16.00;;;13.47;;
12770;SDS011;6449;47.666;9.160;2022-11-15T09:11:18;20.83;;;16.43;;
12770;SDS011;6449;47.666;9.160;2022-11-15T09:16:15;21.20;;;16.23;;
12770;SDS011;6449;47.666;9.160;2022-11-15T09:21:15;22.03;;;16.73;;
12770;SDS011;6449;47.666;9.160;2022-11-15T09:26:11;19.93;;;16.77;;
12770;SDS011;6449;47.666;9.160;2022-11-15T09:31:07;19.00;;;16.10;;
12770;SDS011;6449;47.666;9.160;2022-11-15T09:36:09;18.07;;;15.27;;
12770;SDS011;6449;47.666;9.160;2022-11-15T09:41:13;19.50;;;15.90;;
12770;SDS011;6449;47.666;9.160;2022-11-15T09:46:36;22.03;;;16.67;;
12770;SDS011;6449;47.666;9.160;2022-11-15T09:52:00;22.30;;;17.60;;
12770;SDS011;6449;47.666;9.160;2022-11-15T09:57:12;21.93;;;16.80;;
12770;SDS011;6449;47.666;9.160;2022-11-15T10:02:17;23.10;;;17.90;;
12770;SDS011;6449;47.666;9.160;2022-11-15T10:07:37;18.63;;;15.53;;
12770;SDS011;6449;47.666;9.160;2022-11-15T10:12:45;19.03;;;16.20;;
12770;SDS011;6449;47.666;9.160;2022-11-15T10:23:11;19.30;;;15.47;;
12770;SDS011;6449;47.666;9.160;2022-11-15T10:28:21;18.87;;;14.77;;
12770;SDS011;6449;47.666;9.160;2022-11-15T10:33:25;18.80;;;14.87;;
12770;SDS011;6449;47.666;9.160;2022-11-15T10:38:25;15.80;;;13.87;;
12770;SDS011;6449;47.666;9.160;2022-11-15T10:43:20;13.93;;;12.30;;
12770;SDS011;6449;47.666;9.160;2022-11-15T10:48:25;13.33;;;11.70;;
12770;SDS011;6449;47.666;9.160;2022-11-15T10:53:23;14.83;;;12.77;;
12770;SDS011;6449;47.666;9.160;2022-11-15T10:58:36;16.43;;;13.30;;
12770;SDS011;6449;47.666;9.160;2022-11-15T11:03:37;15.33;;;13.50;;
12770;SDS011;6449;47.666;9.160;2022-11-15T11:08:33;15.37;;;13.63;;
12770;SDS011;6449;47.666;9.160;2022-11-15T11:13:29;19.60;;;15.13;;
12770;SDS011;6449;47.666;9.160;2022-11-15T11:18:30;19.67;;;14.53;;
12770;SDS011;6449;47.666;9.160;2022-11-15T11:23:42;17.20;;;14.30;;
12770;SDS011;6449;47.666;9.160;2022-11-15T11:28:46;18.57;;;14.80;;
12770;SDS011;6449;47.666;9.160;2022-11-15T11:34:11;20.87;;;15.93;;
12770;SDS011;6449;47.666;9.160;2022-11-15T11:39:19;18.10;;;15.77;;
12770;SDS011;6449;47.666;9.160;2022-11-15T11:44:31;21.33;;;16.17;;
12770;SDS011;6449;47.666;9.160;2022-11-15T11:49:37;20.13;;;16.57;;
12770;SDS011;6449;47.666;9.160;2022-11-15T11:54:42;19.87;;;16.03;;
12770;SDS011;6449;47.666;9.160;2022-11-15T11:59:55;21.10;;;16.13;;
12770;SDS011;6449;47.666;9.160;2022-11-15T12:04:58;17.33;;;14.93;;
12770;SDS011;6449;47.666;9.160;2022-11-15T12:10:12;16.77;;;14.40;;
12770;SDS011;6449;47.666;9.160;2022-11-15T12:15:15;19.87;;;14.87;;
12770;SDS011;6449;47.666;9.160;2022-11-15T12:20:15;16.97;;;13.60;;
12770;SDS011;6449;47.666;9.160;2022-11-15T12:25:15;46.40;;;29.50;;
12770;SDS011;6449;47.666;9.160;2022-11-15T12:30:14;22.37;;;17.27;;
12770;SDS011;6449;47.666;9.160;2022-11-15T12:35:20;19.97;;;15.63;;
12770;SDS011;6449;47.666;9.160;2022-11-15T12:40:24;14.50;;;12.50;;
12770;SDS011;6449;47.666;9.160;2022-11-15T12:45:28;16.93;;;13.83;;
12770;SDS011;6449;47.666;9.160;2022-11-15T12:55:49;23.00;;;17.17;;
12770;SDS011;6449;47.666;9.160;2022-11-15T13:06:55;16.50;;;13.43;;
12770;SDS011;6449;47.666;9.160;2022-11-15T13:11:53;14.47;;;12.93;;
12770;SDS011;6449;47.666;9.160;2022-11-15T13:16:48;15.63;;;13.23;;
12770;SDS011;6449;47.666;9.160;2022-11-15T13:21:50;13.30;;;11.90;;
12770;SDS011;6449;47.666;9.160;2022-11-15T13:27:02;15.53;;;12.87;;
12770;SDS011;6449;47.666;9.160;2022-11-15T13:32:10;13.70;;;12.27;;
12770;SDS011;6449;47.666;9.160;2022-11-15T13:37:08;15.40;;;13.27;;
12770;SDS011;6449;47.666;9.160;2022-11-15T13:42:21;15.20;;;13.60;;
12770;SDS011;6449;47.666;9.160;2022-11-15T13:47:15;14.33;;;12.93;;
12770;SDS011;6449;47.666;9.160;2022-11-15T13:52:12;15.10;;;13.50;;
12770;SDS011;6449;47.666;9.160;2022-11-15T13:57:09;16.73;;;14.13;;
12770;SDS011;6449;47.666;9.160;2022-11-15T14:02:12;19.57;;;16.73;;
12770;SDS011;6449;47.666;9.160;2022-11-15T14:07:14;19.97;;;16.93;;
12770;SDS011;6449;47.666;9.160;2022-11-15T14:12:25;22.40;;;19.67;;
12770;SDS011;6449;47.666;9.160;2022-11-15T14:17:34;24.00;;;18.40;;
12770;SDS011;6449;47.666;9.160;2022-11-15T14:22:39;21.20;;;18.10;;
12770;SDS011;6449;47.666;9.160;2022-11-15T14:27:45;19.17;;;16.50;;
12770;SDS011;6449;47.666;9.160;2022-11-15T14:33:17;19.20;;;17.07;;
12770;SDS011;6449;47.666;9.160;2022-11-15T14:38:17;19.33;;;16.90;;
12770;SDS011;6449;47.666;9.160;2022-11-15T14:43:12;28.60;;;24.00;;
12770;SDS011;6449;47.666;9.160;2022-11-15T14:48:06;22.73;;;20.27;;
12770;SDS011;6449;47.666;9.160;2022-11-15T14:53:00;30.43;;;22.77;;
12770;SDS011;6449;47.666;9.160;2022-11-15T14:57:54;47.33;;;37.67;;
12770;SDS011;6449;47.666;9.160;2022-11-15T15:02:50;54.87;;;32.47;;
12770;SDS011;6449;47.666;9.160;2022-11-15T15:07:46;43.40;;;28.87;;
12770;SDS011;6449;47.666;9.160;2022-11-15T15:12:40;43.83;;;33.87;;
12770;SDS011;6449;47.666;9.160;2022-11-15T15:17:35;33.47;;;25.00;;
12770;SDS011;6449;47.666;9.160;2022-11-15T15:22:30;37.93;;;29.40;;
12770;SDS011;6449;47.666;9.160;2022-11-15T15:27:23;30.23;;;23.77;;
12770;SDS011;6449;47.666;9.160;2022-11-15T15:32:17;26.53;;;22.00;;
12770;SDS011;6449;47.666;9.160;2022-11-15T15:37:18;25.27;;;19.97;;
12770;SDS011;6449;47.666;9.160;2022-11-15T15:42:17;25.07;;;18.70;;
12770;SDS011;6449;47.666;9.160;2022-11-15T15:47:11;18.80;;;16.60;;
12770;SDS011;6449;47.666;9.160;2022-11-15T15:52:07;19.03;;;16.93;;
12770;SDS011;6449;47.666;9.160;2022-11-15T15:57:01;22.17;;;17.57;;
12770;SDS011;6449;47.666;9.160;2022-11-15T16:01:55;27.13;;;22.50;;
12770;SDS011;6449;47.666;9.160;2022-11-15T16:06:49;87.47;;;64.40;;
12770;SDS011;6449;47.666;9.160;2022-11-15T16:11:44;41.87;;;32.67;;
12770;SDS011;6449;47.666;9.160;2022-11-15T16:16:38;48.28;;;38.97;;
12770;SDS011;6449;47.666;9.160;2022-11-15T16:21:33;50.77;;;38.37;;
12770;SDS011;6449;47.666;9.160;2022-11-15T16:26:29;36.90;;;28.77;;
12770;SDS011;6449;47.666;9.160;2022-11-15T16:31:29;34.40;;;28.97;;
12770;SDS011;6449;47.666;9.160;2022-11-15T16:36:23;28.93;;;23.73;;
12770;SDS011;6449;47.666;9.160;2022-11-15T16:41:22;25.20;;;20.37;;
12770;SDS011;6449;47.666;9.160;2022-11-15T16:46:16;22.43;;;18.60;;
12770;SDS011;6449;47.666;9.160;2022-11-15T16:51:12;22.50;;;18.37;;
12770;SDS011;6449;47.666;9.160;2022-11-15T16:56:14;29.20;;;21.27;;
12770;SDS011;6449;47.666;9.160;2022-11-15T17:01:17;29.23;;;24.27;;
12770;SDS011;6449;47.666;9.160;2022-11-15T17:06:14;39.70;;;30.60;;
12770;SDS011;6449;47.666;9.160;2022-11-15T17:11:10;27.37;;;20.47;;
12770;SDS011;6449;47.666;9.160;2022-11-15T17:16:08;22.47;;;18.93;;
12770;SDS011;6449;47.666;9.160;2022-11-15T17:21:07;20.83;;;17.80;;
12770;SDS011;6449;47.666;9.160;2022-11-15T17:26:04;22.10;;;18.40;;
12770;SDS011;6449;47.666;9.160;2022-11-15T17:31:18;23.40;;;18.67;;
12770;SDS011;6449;47.666;9.160;2022-11-15T17:36:13;28.10;;;21.47;;
12770;SDS011;6449;47.666;9.160;2022-11-15T17:41:09;29.00;;;22.20;;
12770;SDS011;6449;47.666;9.160;2022-11-15T17:46:06;29.63;;;24.03;;
12770;SDS011;6449;47.666;9.160;2022-11-15T17:51:04;32.97;;;24.27;;
12770;SDS011;6449;47.666;9.160;2022-11-15T17:56:04;33.97;;;27.10;;
12770;SDS011;6449;47.666;9.160;2022-11-15T18:01:04;42.13;;;29.80;;
12770;SDS011;6449;47.666;9.160;2022-11-15T18:05:59;34.27;;;26.00;;
12770;SDS011;6449;47.666;9.160;2022-11-15T18:11:00;25.07;;;21.63;;
12770;SDS011;6449;47.666;9.160;2022-11-15T18:15:58;24.07;;;20.30;;
12770;SDS011;6449;47.666;9.160;2022-11-15T18:20:58;26.70;;;20.10;;
12770;SDS011;6449;47.666;9.160;2022-11-15T18:25:53;26.03;;;19.43;;
12770;SDS011;6449;47.666;9.160;2022-11-15T18:30:48;25.53;;;20.10;;
12770;SDS011;6449;47.666;9.160;2022-11-15T18:35:41;25.57;;;19.67;;
12770;SDS011;6449;47.666;9.160;2022-11-15T18:40:35;25.67;;;20.37;;
12770;SDS011;6449;47.666;9.160;2022-11-15T18:45:28;22.03;;;18.80;;
12770;SDS011;6449;47.666;9.160;2022-11-15T18:50:23;21.37;;;18.50;;
12770;SDS011;6449;47.666;9.160;2022-11-15T18:55:17;49.60;;;26.33;;
12770;SDS011;6449;47.666;9.160;2022-11-15T19:00:11;61.17;;;36.40;;
12770;SDS011;6449;47.666;9.160;2022-11-15T19:05:06;34.87;;;24.17;;
12770;SDS011;6449;47.666;9.160;2022-11-15T19:10:01;39.83;;;26.03;;
12770;SDS011;6449;47.666;9.160;2022-11-15T19:14:54;36.77;;;25.50;;
12770;SDS011;6449;47.666;9.160;2022-11-15T19:19:48;28.43;;;21.50;;
12770;SDS011;6449;47.666;9.160;2022-11-15T19:24:42;20.60;;;17.53;;
12770;SDS011;6449;47.666;9.160;2022-11-15T19:29:36;19.13;;;15.97;;
12770;SDS011;6449;47.666;9.160;2022-11-15T19:34:30;21.87;;;16.27;;
12770;SDS011;6449;47.666;9.160;2022-11-15T19:39:24;25.03;;;18.63;;
12770;SDS011;6449;47.666;9.160;2022-11-15T19:44:17;25.60;;;18.90;;
12770;SDS011;6449;47.666;9.160;2022-11-15T19:49:12;25.60;;;19.60;;
12770;SDS011;6449;47.666;9.160;2022-11-15T19:54:05;23.50;;;18.27;;
12770;SDS011;6449;47.666;9.160;2022-11-15T19:59:00;22.07;;;17.33;;
12770;SDS011;6449;47.666;9.160;2022-11-15T20:03:55;19.67;;;17.07;;
12770;SDS011;6449;47.666;9.160;2022-11-15T20:08:55;24.53;;;19.10;;
12770;SDS011;6449;47.666;9.160;2022-11-15T20:13:54;38.90;;;29.10;;
12770;SDS011;6449;47.666;9.160;2022-11-15T20:18:49;34.00;;;25.97;;
12770;SDS011;6449;47.666;9.160;2022-11-15T20:29:37;25.10;;;17.90;;
12770;SDS011;6449;47.666;9.160;2022-11-15T20:34:38;20.83;;;17.30;;
12770;SDS011;6449;47.666;9.160;2022-11-15T20:39:33;21.73;;;18.13;;
12770;SDS011;6449;47.666;9.160;2022-11-15T20:44:30;20.63;;;15.87;;
12770;SDS011;6449;47.666;9.160;2022-11-15T20:49:27;19.50;;;15.80;;
12770;SDS011;6449;47.666;9.160;2022-11-15T20:54:21;21.53;;;16.40;;
12770;SDS011;6449;47.666;9.160;2022-11-15T20:59:17;21.00;;;15.77;;
12770;SDS011;6449;47.666;9.160;2022-11-15T21:04:12;18.67;;;14.20;;
12770;SDS011;6449;47.666;9.160;2022-11-15T21:09:05;48.50;;;25.07;;
12770;SDS011;6449;47.666;9.160;2022-11-15T21:14:16;18.93;;;15.73;;
12770;SDS011;6449;47.666;9.160;2022-11-15T21:19:10;17.30;;;14.77;;
12770;SDS011;6449;47.666;9.160;2022-11-15T21:24:05;20.67;;;16.30;;
12770;SDS011;6449;47.666;9.160;2022-11-15T21:29:01;21.13;;;16.50;;
12770;SDS011;6449;47.666;9.160;2022-11-15T21:33:55;19.97;;;16.40;;
12770;SDS011;6449;47.666;9.160;2022-11-15T21:38:49;18.93;;;15.27;;
12770;SDS011;6449;47.666;9.160;2022-11-15T21:43:43;17.73;;;14.53;;
12770;SDS011;6449;47.666;9.160;2022-11-15T21:48:37;20.40;;;14.90;;
12770;SDS011;6449;47.666;9.160;2022-11-15T21:53:30;16.43;;;14.50;;
12770;SDS011;6449;47.666;9.160;2022-11-15T21:58:26;16.83;;;14.87;;
12770;SDS011;6449;47.666;9.160;2022-11-15T22:03:22;18.60;;;16.13;;
12770;SDS011;6449;47.666;9.160;2022-11-15T22:08:15;22.57;;;17.10;;
12770;SDS011;6449;47.666;9.160;2022-11-15T22:13:08;19.90;;;17.20;;
12770;SDS011;6449;47.666;9.160;2022-11-15T22:18:03;22.07;;;17.57;;
12770;SDS011;6449;47.666;9.160;2022-11-15T22:22:57;18.87;;;15.53;;
12770;SDS011;6449;47.666;9.160;2022-11-15T22:27:51;16.63;;;14.40;;
12770;SDS011;6449;47.666;9.160;2022-11-15T22:32:46;17.50;;;15.60;;
12770;SDS011;6449;47.666;9.160;2022-11-15T22:37:41;17.10;;;14.83;;
12770;SDS011;6449;47.666;9.160;2022-11-15T22:42:36;20.20;;;15.50;;
12770;SDS011;6449;47.666;9.160;2022-11-15T22:47:30;17.80;;;14.97;;
12770;SDS011;6449;47.666;9.160;2022-11-15T22:52:23;19.80;;;15.10;;
12770;SDS011;6449;47.666;9.160;2022-11-15T22:57:18;18.87;;;14.83;;
12770;SDS011;6449;47.666;9.160;2022-11-15T23:02:12;18.10;;;15.40;;
12770;SDS011;6449;47.666;9.160;2022-11-15T23:07:08;17.33;;;14.20;;
12770;SDS011;6449;47.666;9.160;2022-11-15T23:12:02;20.20;;;14.83;;
12770;SDS011;6449;47.666;9.160;2022-11-15T23:17:14;16.83;;;12.97;;
12770;SDS011;6449;47.666;9.160;2022-11-15T23:22:08;18.80;;;13.43;;
12770;SDS011;6449;47.666;9.160;2022-11-15T23:27:21;17.37;;;13.93;;
12770;SDS011;6449;47.666;9.160;2022-11-15T23:32:17;14.60;;;13.00;;
12770;SDS011;6449;47.666;9.160;2022-11-15T23:37:27;16.13;;;13.23;;
12770;SDS011;6449;47.666;9.160;2022-11-15T23:42:21;16.17;;;12.30;;
12770;SDS011;6449;47.666;9.160;2022-11-15T23:47:14;17.27;;;13.40;;
12770;SDS011;6449;47.666;9.160;2022-11-15T23:52:10;15.90;;;13.57;;
12770;SDS011;6449;47.666;9.160;2022-11-15T23:57:05;20.23;;;14.13;;
